createdAt,value
2023-04-08T00:02:04.701Z,48.00
2023-04-08T00:04:32.328Z,48.00
2023-04-08T00:06:59.722Z,48.00
2023-04-08T00:09:26.964Z,48.00
2023-04-08T00:11:54.216Z,48.10
2023-04-08T00:14:21.657Z,48.20
2023-04-08T00:16:49.109Z,48.30
2023-04-08T00:19:16.713Z,48.70
2023-04-08T00:21:44.141Z,48.40
2023-04-08T00:24:11.655Z,48.50
2023-04-08T00:26:38.833Z,48.70
2023-04-08T00:29:06.145Z,48.80
2023-04-08T00:31:33.582Z,48.70
2023-04-08T00:34:01.630Z,49.00
2023-04-08T00:36:29.558Z,48.90
2023-04-08T00:38:57.436Z,49.00
2023-04-08T00:41:25.212Z,48.90
2023-04-08T00:43:52.917Z,49.10
2023-04-08T00:46:21.060Z,49.00
2023-04-08T00:48:48.599Z,49.00
2023-04-08T00:51:16.426Z,49.20
2023-04-08T00:53:43.750Z,49.10
2023-04-08T00:56:11.594Z,49.40
2023-04-08T00:58:39.517Z,49.50
2023-04-08T01:01:21.165Z,49.70
2023-04-08T01:04:19.356Z,49.70
2023-04-08T01:06:51.321Z,49.80
2023-04-08T01:09:21.414Z,50.00
2023-04-08T01:11:51.749Z,49.90
2023-04-08T01:14:23.464Z,49.90
2023-04-08T01:16:55.639Z,50.40
2023-04-08T01:19:35.203Z,50.00
2023-04-08T01:22:19.892Z,50.10
2023-04-08T01:24:50.236Z,50.00
2023-04-08T01:27:19.439Z,50.00
2023-04-08T01:29:48.555Z,49.90
2023-04-08T01:32:16.906Z,49.80
2023-04-08T01:34:45.249Z,50.00
2023-04-08T01:37:15.230Z,50.00
2023-04-08T01:39:43.254Z,50.00
2023-04-08T01:42:13.583Z,50.10
2023-04-08T01:44:42.243Z,50.20
2023-04-08T01:47:11.641Z,50.00
2023-04-08T01:49:39.754Z,49.90
2023-04-08T01:52:09.236Z,49.70
2023-04-08T01:54:36.702Z,49.60
2023-04-08T01:57:12.013Z,49.90
2023-04-08T01:59:41.023Z,49.80
2023-04-08T02:02:09.877Z,49.90
2023-04-08T02:04:37.354Z,50.10
2023-04-08T02:07:05.923Z,50.10
2023-04-08T02:09:33.191Z,50.10
2023-04-08T02:12:01.411Z,49.90
2023-04-08T02:14:29.453Z,50.20
2023-04-08T02:17:08.729Z,50.20
2023-04-08T02:19:52.623Z,50.50
2023-04-08T02:22:27.908Z,50.80
2023-04-08T02:24:56.766Z,50.80
2023-04-08T02:27:27.036Z,51.20
2023-04-08T02:29:55.774Z,51.60
2023-04-08T02:32:25.878Z,51.90
2023-04-08T02:34:54.508Z,51.80
2023-04-08T02:37:21.897Z,52.60
2023-04-08T02:39:49.217Z,52.50
2023-04-08T02:42:16.461Z,53.30
2023-04-08T02:44:43.749Z,52.90
2023-04-08T02:47:10.953Z,53.30
2023-04-08T02:49:38.272Z,53.00
2023-04-08T02:52:05.818Z,54.20
2023-04-08T02:54:33.050Z,54.20
2023-04-08T02:57:01.597Z,54.90
2023-04-08T02:59:28.828Z,55.40
2023-04-08T03:01:56.447Z,55.70
2023-04-08T03:04:23.778Z,56.40
2023-04-08T03:06:50.971Z,56.60
2023-04-08T03:09:18.245Z,56.90
2023-04-08T03:11:45.432Z,57.40
2023-04-08T03:14:12.875Z,57.40
2023-04-08T03:16:40.312Z,57.50
2023-04-08T03:19:07.675Z,58.00
2023-04-08T03:21:35.189Z,58.20
2023-04-08T03:24:02.646Z,58.30
2023-04-08T03:26:29.902Z,58.50
2023-04-08T03:28:57.196Z,58.70
2023-04-08T03:31:24.614Z,58.80
2023-04-08T03:33:51.926Z,59.30
2023-04-08T03:36:19.184Z,59.80
2023-04-08T03:38:46.687Z,60.30
2023-04-08T03:41:13.975Z,59.90
2023-04-08T03:43:41.280Z,60.10
2023-04-08T03:46:08.729Z,60.20
2023-04-08T03:48:36.104Z,60.20
2023-04-08T03:51:03.902Z,60.40
2023-04-08T03:53:31.168Z,60.60
2023-04-08T03:55:59.281Z,60.60
2023-04-08T03:58:26.797Z,61.10
2023-04-08T04:00:54.102Z,61.70
2023-04-08T04:03:21.691Z,62.30
2023-04-08T04:05:49.506Z,62.30
2023-04-08T04:08:16.868Z,62.50
2023-04-08T04:10:44.088Z,62.70
2023-04-08T04:13:11.351Z,62.40
2023-04-08T04:15:40.031Z,62.40
2023-04-08T04:18:08.257Z,62.70
2023-04-08T04:20:36.206Z,62.60
2023-04-08T04:23:03.457Z,62.60
2023-04-08T04:25:30.742Z,63.10
2023-04-08T04:27:58.098Z,63.30
2023-04-08T04:30:25.948Z,63.30
2023-04-08T04:32:53.258Z,63.80
2023-04-08T04:35:20.621Z,63.70
2023-04-08T04:37:50.068Z,64.00
2023-04-08T04:40:17.574Z,64.20
2023-04-08T04:42:44.804Z,64.60
2023-04-08T04:45:12.552Z,64.90
2023-04-08T04:47:39.848Z,64.70
2023-04-08T04:50:07.647Z,65.00
2023-04-08T04:52:36.848Z,65.00
2023-04-08T04:55:04.647Z,65.20
2023-04-08T04:57:31.861Z,65.20
2023-04-08T04:59:59.705Z,65.60
2023-04-08T05:02:27.154Z,66.00
2023-04-08T05:04:55.651Z,65.70
2023-04-08T05:07:22.932Z,65.80
2023-04-08T05:09:50.719Z,66.00
2023-04-08T05:12:18.021Z,66.00
2023-04-08T05:14:46.173Z,65.90
2023-04-08T05:17:13.448Z,65.90
2023-04-08T05:19:40.707Z,66.20
2023-04-08T05:22:07.905Z,66.50
2023-04-08T05:24:36.350Z,66.70
2023-04-08T05:27:03.651Z,66.30
2023-04-08T05:29:30.866Z,66.50
2023-04-08T05:31:58.166Z,67.00
2023-04-08T05:34:25.437Z,67.10
2023-04-08T05:36:52.904Z,67.50
2023-04-08T05:39:20.562Z,67.90
2023-04-08T05:41:47.928Z,68.10
2023-04-08T05:44:15.476Z,67.90
2023-04-08T05:46:42.990Z,68.10
2023-04-08T05:49:10.346Z,68.10
2023-04-08T05:51:38.524Z,68.30
2023-04-08T05:54:05.906Z,68.10
2023-04-08T05:56:33.080Z,68.10
2023-04-08T05:59:00.540Z,68.40
2023-04-08T06:01:27.842Z,69.30
2023-04-08T06:03:58.158Z,68.90
2023-04-08T06:06:26.082Z,69.00
2023-04-08T06:08:53.336Z,68.80
2023-04-08T06:11:20.665Z,68.70
2023-04-08T06:13:48.168Z,68.90
2023-04-08T06:16:21.149Z,69.00
2023-04-08T06:18:49.716Z,69.00
2023-04-08T06:21:17.461Z,69.10
2023-04-08T06:23:44.937Z,68.90
2023-04-08T06:26:13.219Z,69.10
2023-04-08T06:28:40.812Z,68.90
2023-04-08T06:31:08.175Z,69.20
2023-04-08T06:33:35.604Z,69.20
2023-04-08T06:36:08.096Z,69.40
2023-04-08T06:38:35.622Z,70.00
2023-04-08T06:41:07.041Z,69.60
2023-04-08T06:43:35.500Z,69.70
2023-04-08T06:46:03.129Z,69.50
2023-04-08T06:48:30.901Z,69.20
2023-04-08T06:51:00.398Z,69.00
2023-04-08T06:53:32.768Z,69.20
2023-04-08T06:56:00.706Z,69.10
2023-04-08T06:58:27.923Z,69.10
2023-04-08T07:00:56.368Z,69.00
2023-04-08T07:03:24.160Z,68.90
2023-04-08T07:05:52.148Z,68.90
2023-04-08T07:08:19.440Z,68.70
2023-04-08T07:10:46.747Z,69.00
2023-04-08T07:13:14.115Z,69.10
2023-04-08T07:15:41.526Z,69.10
2023-04-08T07:18:08.995Z,69.30
2023-04-08T07:20:38.295Z,69.20
2023-04-08T07:23:05.808Z,69.30
2023-04-08T07:25:37.343Z,69.40
2023-04-08T07:28:04.685Z,70.00
2023-04-08T07:30:32.070Z,69.80
2023-04-08T07:33:00.912Z,69.30
2023-04-08T07:35:29.056Z,69.40
2023-04-08T07:37:57.577Z,69.50
2023-04-08T07:40:24.971Z,69.00
2023-04-08T07:42:52.334Z,68.80
2023-04-08T07:45:20.262Z,68.70
2023-04-08T07:47:47.700Z,68.60
2023-04-08T07:50:15.118Z,68.70
2023-04-08T07:52:42.366Z,69.10
2023-04-08T07:55:10.013Z,69.00
2023-04-08T07:57:37.600Z,68.90
2023-04-08T08:00:05.685Z,68.60
2023-04-08T08:02:40.623Z,68.60
2023-04-08T08:05:08.381Z,68.90
2023-04-08T08:07:36.319Z,69.20
2023-04-08T08:10:03.767Z,68.80
2023-04-08T08:12:31.319Z,68.70
2023-04-08T08:14:59.136Z,68.60
2023-04-08T08:17:30.088Z,68.30
2023-04-08T08:19:57.835Z,68.60
2023-04-08T08:22:25.410Z,68.30
2023-04-08T08:24:58.182Z,68.70
2023-04-08T08:27:26.190Z,68.70
2023-04-08T08:29:53.481Z,67.80
2023-04-08T08:32:21.042Z,68.00
2023-04-08T08:34:48.416Z,68.00
2023-04-08T08:37:16.008Z,67.30
2023-04-08T08:39:43.363Z,67.10
2023-04-08T08:42:24.356Z,66.60
2023-04-08T08:44:51.917Z,66.30
2023-04-08T08:47:19.358Z,65.00
2023-04-08T08:49:48.228Z,64.90
2023-04-08T08:52:18.712Z,64.80
2023-04-08T08:54:46.334Z,65.00
2023-04-08T08:57:22.583Z,64.60
2023-04-08T08:59:50.150Z,64.40
2023-04-08T09:02:29.750Z,64.40
2023-04-08T09:05:02.282Z,63.40
2023-04-08T09:07:31.772Z,63.60
2023-04-08T09:09:59.536Z,63.50
2023-04-08T09:12:31.302Z,63.50
2023-04-08T09:15:09.251Z,63.00
2023-04-08T09:17:41.278Z,62.80
2023-04-08T09:20:13.646Z,62.40
2023-04-08T09:23:01.004Z,62.30
2023-04-08T09:25:32.746Z,62.40
2023-04-08T09:28:02.141Z,62.20
2023-04-08T09:30:32.279Z,62.50
2023-04-08T09:33:01.289Z,62.60
2023-04-08T09:35:28.956Z,62.70
2023-04-08T09:37:56.480Z,62.90
2023-04-08T09:40:26.407Z,62.60
2023-04-08T09:42:56.152Z,63.00
2023-04-08T09:45:25.729Z,63.10
2023-04-08T09:48:02.355Z,63.20
2023-04-08T09:50:36.369Z,63.00
2023-04-08T09:53:15.652Z,63.20
2023-04-08T09:55:45.440Z,63.40
2023-04-08T09:58:17.947Z,63.50
2023-04-08T10:00:51.372Z,63.60
2023-04-08T10:03:25.138Z,63.60
2023-04-08T10:05:53.846Z,63.70
2023-04-08T10:08:22.078Z,63.70
2023-04-08T10:10:50.381Z,64.10
2023-04-08T10:13:18.348Z,64.50
2023-04-08T10:15:47.554Z,64.30
2023-04-08T10:18:18.095Z,64.10
2023-04-08T10:20:47.441Z,63.80
2023-04-08T10:23:16.695Z,63.70
2023-04-08T10:25:48.535Z,63.40
2023-04-08T10:28:17.821Z,63.00
2023-04-08T10:30:46.542Z,62.90
2023-04-08T10:33:16.243Z,62.90
2023-04-08T10:35:48.638Z,62.60
2023-04-08T10:38:17.553Z,62.90
2023-04-08T10:40:45.968Z,62.60
2023-04-08T10:43:14.365Z,62.70
2023-04-08T10:45:43.067Z,62.80
2023-04-08T10:48:22.664Z,62.90
2023-04-08T10:50:56.436Z,63.00
2023-04-08T10:53:35.362Z,62.40
2023-04-08T10:56:08.481Z,62.50
2023-04-08T10:58:37.027Z,62.00
2023-04-08T11:01:07.109Z,61.40
2023-04-08T11:03:35.616Z,61.30
2023-04-08T11:06:03.912Z,61.60
2023-04-08T11:08:36.705Z,61.20
2023-04-08T11:11:09.134Z,60.90
2023-04-08T11:13:52.801Z,60.00
2023-04-08T11:16:24.273Z,59.70
2023-04-08T11:18:51.929Z,59.90
2023-04-08T11:21:19.591Z,59.70
2023-04-08T11:23:50.068Z,59.70
2023-04-08T11:26:18.410Z,58.80
2023-04-08T11:28:49.066Z,58.40
2023-04-08T11:31:17.861Z,58.60
2023-04-08T11:33:47.575Z,58.60
2023-04-08T11:36:17.883Z,59.00
2023-04-08T11:38:47.745Z,59.10
2023-04-08T11:41:16.180Z,59.10
2023-04-08T11:43:57.050Z,59.20
2023-04-08T11:46:25.082Z,59.20
2023-04-08T11:49:06.860Z,59.30
2023-04-08T11:51:35.470Z,59.10
2023-04-08T11:54:07.518Z,59.30
2023-04-08T11:56:45.878Z,59.30
2023-04-08T11:59:13.154Z,59.50
2023-04-08T12:01:40.572Z,59.00
2023-04-08T12:04:10.350Z,59.10
2023-04-08T12:06:37.980Z,59.10
2023-04-08T12:09:05.228Z,59.00
2023-04-08T12:11:32.541Z,59.00
2023-04-08T12:13:59.806Z,58.70
2023-04-08T12:16:27.156Z,58.90
2023-04-08T12:18:55.069Z,58.40
2023-04-08T12:21:22.408Z,58.40
2023-04-08T12:23:50.149Z,57.70
2023-04-08T12:26:18.048Z,57.50
2023-04-08T12:28:45.862Z,57.60
2023-04-08T12:31:13.168Z,57.40
2023-04-08T12:33:40.975Z,57.40
2023-04-08T12:36:08.254Z,56.80
2023-04-08T12:38:35.451Z,56.70
2023-04-08T12:41:02.736Z,56.40
2023-04-08T12:43:31.989Z,55.80
2023-04-08T12:45:59.302Z,55.60
2023-04-08T12:48:26.506Z,55.30
2023-04-08T12:50:53.823Z,54.70
2023-04-08T12:53:21.157Z,55.20
2023-04-08T12:55:49.236Z,55.20
2023-04-08T12:58:17.223Z,55.40
2023-04-08T13:00:46.570Z,55.30
2023-04-08T13:03:17.148Z,55.40
2023-04-08T13:05:44.892Z,55.50
2023-04-08T13:08:12.379Z,55.80
2023-04-08T13:10:40.278Z,56.00
2023-04-08T13:13:07.980Z,55.50
2023-04-08T13:15:35.414Z,55.50
2023-04-08T13:18:03.007Z,55.70
2023-04-08T13:20:30.572Z,55.80
2023-04-08T13:22:57.988Z,55.30
2023-04-08T13:25:25.327Z,54.80
2023-04-08T13:27:52.724Z,55.00
2023-04-08T13:30:20.333Z,54.80
2023-04-08T13:32:47.616Z,54.90
2023-04-08T13:35:15.003Z,54.60
2023-04-08T13:37:42.332Z,55.00
2023-04-08T13:40:10.179Z,54.90
2023-04-08T13:42:37.470Z,55.00
2023-04-08T13:45:05.612Z,54.70
2023-04-08T13:47:34.242Z,54.60
2023-04-08T13:50:02.942Z,54.20
2023-04-08T13:52:30.491Z,53.70
2023-04-08T13:54:57.938Z,53.60
2023-04-08T13:57:25.336Z,53.30
2023-04-08T13:59:52.969Z,53.20
2023-04-08T14:02:20.287Z,53.50
2023-04-08T14:04:47.860Z,53.20
2023-04-08T14:07:15.290Z,53.50
2023-04-08T14:09:42.741Z,53.50
2023-04-08T14:12:10.186Z,53.60
2023-04-08T14:14:37.458Z,54.50
2023-04-08T14:17:04.690Z,54.90
2023-04-08T14:19:32.173Z,55.10
2023-04-08T14:21:59.373Z,55.50
2023-04-08T14:24:27.025Z,55.70
2023-04-08T14:26:54.295Z,56.00
2023-04-08T14:29:21.553Z,56.90
2023-04-08T14:31:48.746Z,57.70
2023-04-08T14:34:16.300Z,58.00
2023-04-08T14:36:43.922Z,58.50
2023-04-08T14:39:12.169Z,58.90
2023-04-08T14:41:39.451Z,59.30
2023-04-08T14:44:06.704Z,59.10
2023-04-08T14:46:34.394Z,59.50
2023-04-08T14:49:01.775Z,59.40
2023-04-08T14:51:30.152Z,60.00
2023-04-08T14:53:57.517Z,59.80
2023-04-08T14:56:24.864Z,59.60
2023-04-08T14:58:52.450Z,59.40
2023-04-08T15:01:20.123Z,58.60
2023-04-08T15:03:47.945Z,58.30
2023-04-08T15:06:17.669Z,58.00
2023-04-08T15:08:45.767Z,58.00
2023-04-08T15:11:13.306Z,58.40
2023-04-08T15:13:40.965Z,58.10
2023-04-08T15:16:08.464Z,58.30
2023-04-08T15:18:37.134Z,58.10
2023-04-08T15:21:04.525Z,58.20
2023-04-08T15:23:31.825Z,57.90
2023-04-08T15:25:59.282Z,57.90
2023-04-08T15:28:27.416Z,58.00
2023-04-08T15:30:54.906Z,58.30
2023-04-08T15:33:22.221Z,58.50
2023-04-08T15:35:49.530Z,58.40
2023-04-08T15:38:17.638Z,58.50
2023-04-08T15:40:47.412Z,58.70
2023-04-08T15:43:15.668Z,58.30
2023-04-08T15:45:44.199Z,58.40
2023-04-08T15:48:11.798Z,58.70
2023-04-08T15:50:39.103Z,58.50
2023-04-08T15:53:06.597Z,58.50
2023-04-08T15:55:41.222Z,58.50
2023-04-08T15:58:08.625Z,58.20
2023-04-08T16:00:35.992Z,58.30
2023-04-08T16:03:05.470Z,58.20
2023-04-08T16:05:35.812Z,58.30
2023-04-08T16:08:04.470Z,58.00
2023-04-08T16:10:31.974Z,57.70
2023-04-08T16:12:59.218Z,57.70
2023-04-08T16:15:26.666Z,57.80
2023-04-08T16:17:54.357Z,57.90
2023-04-08T16:20:21.693Z,58.10
2023-04-08T16:22:50.123Z,58.00
2023-04-08T16:25:17.751Z,57.70
2023-04-08T16:27:45.114Z,58.00
2023-04-08T16:30:12.635Z,58.00
2023-04-08T16:32:40.429Z,57.90
2023-04-08T16:35:08.472Z,57.90
2023-04-08T16:37:35.920Z,58.20
2023-04-08T16:40:03.854Z,58.30
2023-04-08T16:42:32.805Z,58.40
2023-04-08T16:45:01.087Z,58.40
2023-04-08T16:47:28.870Z,58.50
2023-04-08T16:49:56.280Z,58.50
2023-04-08T16:52:23.672Z,58.50
2023-04-08T16:54:52.314Z,58.40
2023-04-08T16:57:19.673Z,58.40
2023-04-08T16:59:47.132Z,58.50
2023-04-08T17:02:14.815Z,58.30
2023-04-08T17:04:42.277Z,58.30
2023-04-08T17:07:09.627Z,58.30
2023-04-08T17:09:37.403Z,58.40
2023-04-08T17:12:04.821Z,58.70
2023-04-08T17:14:33.688Z,58.80
2023-04-08T17:17:01.240Z,58.80
2023-04-08T17:19:28.477Z,58.90
2023-04-08T17:21:55.715Z,59.00
2023-04-08T17:24:23.066Z,59.00
2023-04-08T17:26:50.712Z,59.00
2023-04-08T17:29:18.352Z,58.90
2023-04-08T17:31:45.982Z,59.10
2023-04-08T17:34:13.232Z,59.00
2023-04-08T17:36:40.586Z,59.00
2023-04-08T17:39:07.966Z,59.10
2023-04-08T17:41:41.288Z,59.10
2023-04-08T17:44:09.450Z,59.20
2023-04-08T17:46:37.192Z,59.30
2023-04-08T17:49:04.494Z,59.30
2023-04-08T17:51:32.044Z,59.40
2023-04-08T17:53:59.643Z,59.40
2023-04-08T17:56:28.146Z,59.50
2023-04-08T17:58:55.639Z,59.70
2023-04-08T18:01:23.158Z,59.60
2023-04-08T18:03:53.672Z,59.60
2023-04-08T18:06:21.206Z,59.50
2023-04-08T18:08:48.600Z,59.50
2023-04-08T18:11:16.010Z,59.60
2023-04-08T18:13:43.490Z,59.90
2023-04-08T18:16:18.223Z,59.70
2023-04-08T18:18:45.736Z,59.70
2023-04-08T18:21:15.081Z,59.60
2023-04-08T18:23:42.563Z,59.50
2023-04-08T18:26:10.728Z,59.60
2023-04-08T18:28:38.128Z,59.60
2023-04-08T18:31:06.287Z,59.50
2023-04-08T18:33:33.770Z,59.30
2023-04-08T18:36:12.462Z,59.20
2023-04-08T18:38:40.879Z,59.20
2023-04-08T18:41:08.683Z,59.20
2023-04-08T18:43:36.145Z,59.30
2023-04-08T18:46:04.740Z,59.40
2023-04-08T18:48:33.105Z,59.60
2023-04-08T18:51:01.718Z,59.50
2023-04-08T18:53:29.052Z,59.50
2023-04-08T18:55:56.401Z,59.40
2023-04-08T18:58:23.651Z,59.30
2023-04-08T19:00:50.987Z,59.50
2023-04-08T19:03:18.435Z,59.50
2023-04-08T19:05:46.488Z,59.60
2023-04-08T19:08:13.901Z,59.70
2023-04-08T19:10:41.273Z,59.80
2023-04-08T19:13:08.685Z,60.10
2023-04-08T19:15:37.224Z,59.80
2023-04-08T19:18:05.566Z,59.90
2023-04-08T19:20:33.586Z,59.90
2023-04-08T19:23:01.236Z,60.00
2023-04-08T19:25:28.498Z,60.20
2023-04-08T19:27:56.260Z,60.30
2023-04-08T19:30:23.929Z,60.30
2023-04-08T19:32:51.650Z,60.30
2023-04-08T19:35:18.908Z,60.40
2023-04-08T19:37:46.306Z,60.40
2023-04-08T19:40:13.571Z,60.70
2023-04-08T19:42:40.985Z,60.70
2023-04-08T19:45:10.760Z,60.80
2023-04-08T19:47:43.099Z,60.90
2023-04-08T19:50:11.957Z,61.10
2023-04-08T19:52:39.433Z,61.20
2023-04-08T19:55:07.978Z,61.00
2023-04-08T19:57:35.614Z,60.90
2023-04-08T20:00:04.697Z,61.00
2023-04-08T20:02:34.047Z,60.90
2023-04-08T20:05:02.244Z,60.90
2023-04-08T20:07:29.749Z,61.00
2023-04-08T20:09:57.193Z,61.00
2023-04-08T20:12:24.554Z,61.10
2023-04-08T20:14:51.803Z,61.10
2023-04-08T20:17:20.794Z,60.90
2023-04-08T20:19:48.206Z,61.00
2023-04-08T20:22:15.895Z,60.90
2023-04-08T20:24:43.354Z,60.90
2023-04-08T20:27:10.902Z,60.70
2023-04-08T20:29:38.266Z,60.80
2023-04-08T20:32:05.710Z,60.80
2023-04-08T20:34:33.182Z,60.70
2023-04-08T20:37:01.564Z,61.30
2023-04-08T20:39:29.782Z,61.30
2023-04-08T20:42:00.841Z,61.60
2023-04-08T20:44:28.410Z,61.60
2023-04-08T20:46:55.720Z,61.60
2023-04-08T20:49:23.045Z,62.30
2023-04-08T20:51:50.491Z,61.80
2023-04-08T20:54:17.702Z,61.80
2023-04-08T20:56:45.310Z,61.90
2023-04-08T20:59:12.695Z,61.90
2023-04-08T21:01:40.044Z,61.80
2023-04-08T21:04:07.426Z,61.70
2023-04-08T21:06:37.530Z,61.70
2023-04-08T21:09:05.188Z,61.60
2023-04-08T21:11:32.608Z,61.70
2023-04-08T21:14:00.129Z,61.90
2023-04-08T21:16:28.941Z,61.90
2023-04-08T21:18:58.225Z,62.10
2023-04-08T21:21:25.629Z,62.30
2023-04-08T21:23:53.150Z,62.20
2023-04-08T21:26:21.751Z,62.20
2023-04-08T21:28:50.088Z,62.30
2023-04-08T21:31:17.958Z,62.40
2023-04-08T21:33:45.574Z,62.50
2023-04-08T21:36:12.864Z,62.60
2023-04-08T21:38:41.907Z,62.60
2023-04-08T21:41:09.128Z,62.80
2023-04-08T21:43:36.601Z,62.70
2023-04-08T21:46:04.128Z,62.80
2023-04-08T21:48:31.802Z,62.90
2023-04-08T21:50:59.273Z,63.00
2023-04-08T21:53:26.808Z,63.20
2023-04-08T21:55:54.251Z,63.20
2023-04-08T21:58:21.883Z,63.20
2023-04-08T22:00:50.530Z,63.20
2023-04-08T22:03:17.913Z,63.20
2023-04-08T22:05:45.650Z,64.10
2023-04-08T22:08:13.089Z,64.20
2023-04-08T22:10:40.585Z,63.40
2023-04-08T22:13:07.944Z,63.40
2023-04-08T22:15:35.277Z,63.40
2023-04-08T22:18:04.666Z,63.40
2023-04-08T22:20:32.042Z,63.60
2023-04-08T22:22:59.331Z,63.70
2023-04-08T22:25:26.676Z,63.60
2023-04-08T22:27:53.969Z,63.70
2023-04-08T22:30:21.399Z,63.60
2023-04-08T22:32:48.825Z,63.60
2023-04-08T22:35:16.589Z,63.60
2023-04-08T22:37:43.809Z,63.70
2023-04-08T22:40:11.267Z,63.60
2023-04-08T22:42:38.699Z,63.80
2023-04-08T22:45:06.821Z,63.60
2023-04-08T22:47:34.214Z,63.60
2023-04-08T22:50:01.644Z,63.50
2023-04-08T22:52:28.866Z,63.50
2023-04-08T22:54:56.107Z,63.70
2023-04-08T22:57:23.441Z,63.60
2023-04-08T22:59:50.651Z,63.60
2023-04-08T23:02:18.110Z,63.80
2023-04-08T23:04:45.808Z,64.00
2023-04-08T23:07:13.125Z,64.00
2023-04-08T23:09:40.437Z,64.10
2023-04-08T23:12:07.861Z,64.20
2023-04-08T23:14:35.191Z,64.30
2023-04-08T23:17:04.976Z,64.30
2023-04-08T23:19:32.702Z,64.30
2023-04-08T23:22:00.221Z,64.30
2023-04-08T23:24:27.433Z,64.60
2023-04-08T23:26:54.699Z,64.70
2023-04-08T23:29:22.008Z,64.90
2023-04-08T23:31:49.404Z,65.20
2023-04-08T23:34:16.774Z,65.40
2023-04-08T23:36:44.096Z,65.50
2023-04-08T23:39:11.497Z,65.20
2023-04-08T23:41:41.722Z,65.30
2023-04-08T23:44:09.061Z,65.30
2023-04-08T23:46:36.363Z,65.30
2023-04-08T23:49:03.796Z,65.40
2023-04-08T23:51:31.479Z,65.60
2023-04-08T23:53:59.144Z,65.50
2023-04-08T23:56:26.393Z,65.60
2023-04-08T23:58:53.987Z,66.00
